KSVH

Details ICAO KSVH (SVH)
Name Statesville Rgnl
Region United States
Timezone America/New_York (UTC-5.0)
Plans Departing 13
Arriving 4
Stats Elevation 965 ft / 294 m (AMSL)
Location 35.764996° -80.953896°
Runways 1
Magnetic Variation 7.775° W
Sunrise 2017-12-12 12:25:59 UTC / 2017-12-12 07:25:59 Local
Sunset 2017-12-12 22:12:10 UTC / 2017-12-12 17:12:10 Local
Advertisement - Login to hide

Runways

ID Width Length Bearing (true) Bearing (mag) Surface Threshold Offset Overrun Length
10 98 ft / 30 m 6,993 ft / 2,131 m 96.86° 104.63° Asphalt 1,001 ft / 305 m 0 ft / 0 m
28 98 ft / 30 m 6,993 ft / 2,131 m 276.88° 284.65° Asphalt 551 ft / 168 m 0 ft / 0 m

Approach Navaids

Runway Type Ident Frequency Range Bearing (true) Bearing (mag) Slope Elevation
28 Localiser ISVH 111.75 MHz 18 nm / 33 km 276.86° 284.64° - 932 ft / 284 m (AMSL)
28 Glidescope ISVH 111.75 MHz 10 nm / 19 km 276.87° 284.64° 3.00° 956 ft / 291 m (AMSL)
28 DME ISVH 111.75 MHz 18 nm / 33 km - - - 924 ft / 282 m (AMSL)

Map

Weather


0- 5 10 15 20 25 30 35+ Temperature / ° C

Clouds and Precipitation
Forecast for 2017-12-13 00:00 UTC. Updated 24 minutes ago

Ground ~20,000 ft ~40,000 ft Winds

METAR

KSVH 122325Z AUTO 29013G18KT 10SM CLR 03/M12 A2977 RMK AO2 T00251120

TAF

Not found

Frequencies

Recorded 119.22 MHz AWOS 3
Unicom 123.07 MHz CTAF
Warning: Do not use this data for real-world aviation or navigation. No guarantee of current accuracy is given.